Time;durP1;ratioP1;P1;durP2;ratioP2;P2;SDS_P1;SDS_P2;PMS_P1;PMS_P2;Temp;Humidity;BMP_temperature;BMP_pressure;BME280_temperature;BME280_humidity;BME280_pressure;Samples;Min_cycle;Max_cycle;Signal;HPM_P1;HPM_P2
2024/04/01 00:01:25;;;;;;;32.95;19.23;;;;;;;5.74;100.00;99405.00;5048724;28;20128;-75
2024/04/01 00:03:50;;;;;;;27.40;16.00;;;;;;;5.65;100.00;99399.56;5049848;28;20115;-74
2024/04/01 00:06:15;;;;;;;34.67;17.70;;;;;;;5.58;100.00;99395.88;5049492;28;20059;-75
2024/04/01 00:08:40;;;;;;;23.15;14.10;;;;;;;5.53;100.00;99400.72;5048422;28;20045;-75
2024/04/01 00:11:06;;;;;;;29.50;15.52;;;;;;;5.51;100.00;99397.41;5048333;28;20119;-75
2024/04/01 00:13:31;;;;;;;25.08;15.02;;;;;;;5.53;100.00;99394.63;5050168;28;20033;-74
2024/04/01 00:15:56;;;;;;;32.05;17.33;;;;;;;5.57;100.00;99402.09;5049827;28;20072;-75
2024/04/01 00:18:22;;;;;;;35.38;19.48;;;;;;;5.64;100.00;99400.56;5048178;28;20100;-75
2024/04/01 00:20:57;;;;;;;45.08;23.15;;;;;;;5.75;100.00;99411.94;5050208;28;20052;-75
2024/04/01 00:23:23;;;;;;;38.78;21.02;;;;;;;5.85;100.00;99398.69;5051031;28;20441;-75
2024/04/01 00:25:49;;;;;;;38.78;21.55;;;;;;;5.99;100.00;99412.31;5053799;28;20428;-75
2024/04/01 00:28:14;;;;;;;43.85;23.00;;;;;;;6.15;100.00;99411.69;5052985;28;20049;-75
2024/04/01 00:30:40;;;;;;;40.13;19.88;;;;;;;6.29;100.00;99407.72;5053370;28;20040;-75
2024/04/01 00:33:05;;;;;;;35.05;19.85;;;;;;;6.41;100.00;99412.84;5053086;28;20139;-75
2024/04/01 00:35:30;;;;;;;41.38;21.55;;;;;;;6.54;100.00;99418.59;5053279;28;20047;-75
2024/04/01 00:37:56;;;;;;;43.80;23.05;;;;;;;6.64;100.00;99415.88;5053533;28;20052;-75
2024/04/01 00:40:21;;;;;;;39.72;21.38;;;;;;;6.74;100.00;99410.56;5034688;28;20079;-75
2024/04/01 00:42:47;;;;;;;35.42;19.67;;;;;;;6.80;100.00;99392.28;5051747;28;20036;-75
2024/04/01 00:45:13;;;;;;;36.78;21.00;;;;;;;6.78;100.00;99396.88;5052972;28;20029;-75
2024/04/01 00:47:39;;;;;;;37.55;19.75;;;;;;;6.72;100.00;99392.19;5053331;28;20493;-75
2024/04/01 00:50:06;;;;;;;26.65;15.90;;;;;;;6.58;100.00;99388.22;5052603;28;20499;-75
2024/04/01 00:52:32;;;;;;;25.63;14.88;;;;;;;6.47;100.00;99380.53;5053139;28;20029;-75
2024/04/01 00:54:58;;;;;;;23.38;14.65;;;;;;;6.35;100.00;99377.25;5053163;28;20036;-75
2024/04/01 00:57:24;;;;;;;35.83;18.33;;;;;;;6.22;100.00;99385.50;5052685;28;20037;-75
2024/04/01 00:59:53;;;;;;;18.98;12.38;;;;;;;6.10;100.00;99376.13;5052934;28;20409;-75
2024/04/01 01:02:20;;;;;;;36.22;18.70;;;;;;;6.04;100.00;99374.06;5052358;28;20033;-74
2024/04/01 01:04:46;;;;;;;37.05;18.17;;;;;;;6.05;100.00;99392.41;5052925;28;20507;-74
2024/04/01 01:07:12;;;;;;;29.52;16.73;;;;;;;6.05;100.00;99391.59;5052012;28;20111;-74
2024/04/01 01:09:39;;;;;;;25.92;15.18;;;;;;;6.04;100.00;99388.09;5052794;28;20049;-74
2024/04/01 01:12:05;;;;;;;29.35;17.58;;;;;;;6.00;100.00;99390.22;5052144;28;20142;-75
2024/04/01 01:14:31;;;;;;;26.83;14.45;;;;;;;5.94;100.00;99382.84;5052520;28;20052;-75
2024/04/01 01:16:56;;;;;;;40.47;19.02;;;;;;;5.87;100.00;99381.75;5052271;28;20036;-75
2024/04/01 01:19:23;;;;;;;29.30;16.58;;;;;;;5.79;100.00;99394.81;5051727;28;20051;-75
2024/04/01 01:21:48;;;;;;;32.38;18.27;;;;;;;5.72;100.00;99402.50;5052448;28;20106;-75
2024/04/01 01:24:13;;;;;;;37.35;19.38;;;;;;;5.67;100.00;99394.16;5052300;28;20059;-74
2024/04/01 01:26:39;;;;;;;25.33;15.68;;;;;;;5.62;100.00;99393.75;5050989;28;20376;-75
2024/04/01 01:29:04;;;;;;;29.48;16.67;;;;;;;5.56;100.00;99395.16;5052363;28;20136;-75
2024/04/01 01:31:30;;;;;;;29.90;15.35;;;;;;;5.50;100.00;99394.91;5052023;28;20120;-75
2024/04/01 01:33:57;;;;;;;24.95;13.95;;;;;;;5.46;100.00;99392.56;5052259;28;20108;-75
2024/04/01 01:36:22;;;;;;;26.25;15.23;;;;;;;5.43;100.00;99390.22;5051217;28;20115;-75
2024/04/01 01:38:47;;;;;;;32.80;17.23;;;;;;;5.42;100.00;99395.59;5052174;28;20503;-75
2024/04/01 01:41:13;;;;;;;29.42;14.75;;;;;;;5.47;100.00;99390.75;5051850;28;20385;-76
2024/04/01 01:43:38;;;;;;;36.13;18.52;;;;;;;5.46;100.00;99389.91;5051550;28;20037;-75
2024/04/01 01:46:03;;;;;;;29.90;18.05;;;;;;;5.42;100.00;99383.25;5051530;28;20112;-75
2024/04/01 01:48:29;;;;;;;25.60;15.00;;;;;;;5.37;100.00;99382.00;5051523;28;20465;-74
2024/04/01 01:50:54;;;;;;;22.70;12.90;;;;;;;5.29;100.00;99386.19;5050232;28;20079;-74
2024/04/01 01:53:19;;;;;;;24.05;14.02;;;;;;;5.24;100.00;99393.69;5051278;28;20035;-75
2024/04/01 01:55:45;;;;;;;25.65;14.52;;;;;;;5.16;100.00;99392.72;5051977;28;20062;-74
2024/04/01 01:58:10;;;;;;;21.92;13.43;;;;;;;5.11;100.00;99391.31;5051339;28;20116;-75
2024/04/01 02:00:36;;;;;;;20.58;13.63;;;;;;;5.12;100.00;99397.44;5051284;28;20481;-75
2024/04/01 02:03:01;;;;;;;28.60;15.77;;;;;;;5.09;100.00;99384.50;5051570;28;20040;-75
2024/04/01 02:05:26;;;;;;;27.33;14.50;;;;;;;5.04;100.00;99390.22;5051121;28;20032;-75
2024/04/01 02:07:52;;;;;;;19.40;13.48;;;;;;;4.99;100.00;99391.63;5051485;28;20095;-75
2024/04/01 02:10:23;;;;;;;20.40;12.10;;;;;;;4.91;100.00;99387.88;5051096;28;20059;-75
2024/04/01 02:12:49;;;;;;;20.80;13.27;;;;;;;4.90;100.00;99396.75;5051643;28;20033;-74
2024/04/01 02:15:19;;;;;;;25.05;14.38;;;;;;;4.92;100.00;99399.22;5051151;28;20029;-75
2024/04/01 02:17:44;;;;;;;22.15;13.25;;;;;;;4.92;100.00;99404.50;5050143;28;20033;-75
2024/04/01 02:20:11;;;;;;;24.65;14.95;;;;;;;4.89;100.00;99394.25;5051530;28;20163;-75
2024/04/01 02:22:37;;;;;;;22.33;13.50;;;;;;;4.87;100.00;99390.91;5051523;28;20091;-75
2024/04/01 02:25:04;;;;;;;22.42;14.20;;;;;;;4.88;100.00;99387.28;5051435;28;20442;-75
2024/04/01 02:27:29;;;;;;;25.38;13.13;;;;;;;4.92;100.00;99394.78;5050872;28;20159;-75
2024/04/01 02:29:54;;;;;;;21.83;13.23;;;;;;;4.96;100.00;99395.34;5051088;28;20159;-75
2024/04/01 02:32:20;;;;;;;29.35;15.02;;;;;;;4.97;100.00;99394.41;5050684;28;20044;-75
2024/04/01 02:34:46;;;;;;;23.67;14.48;;;;;;;4.97;100.00;99397.03;5051205;28;20029;-75
2024/04/01 02:37:11;;;;;;;26.83;16.13;;;;;;;4.94;100.00;99394.66;5050602;28;20021;-75
2024/04/01 02:39:37;;;;;;;37.70;17.52;;;;;;;4.95;100.00;99399.78;5050603;28;20094;-75
2024/04/01 02:42:02;;;;;;;34.75;16.67;;;;;;;5.03;100.00;99388.56;5050892;28;20119;-75
2024/04/01 02:44:27;;;;;;;40.67;20.42;;;;;;;5.19;100.00;99393.25;5050573;28;20127;-75
2024/04/01 02:46:53;;;;;;;39.58;18.70;;;;;;;5.35;100.00;99397.16;5050107;28;20164;-75
2024/04/01 02:49:18;;;;;;;34.42;19.70;;;;;;;5.48;100.00;99395.06;5050355;28;20116;-75
2024/04/01 02:51:44;;;;;;;41.20;19.52;;;;;;;5.66;100.00;99411.00;5049483;28;20036;-75
2024/04/01 02:54:09;;;;;;;38.38;19.20;;;;;;;5.77;100.00;99405.53;5050812;28;20037;-75
2024/04/01 02:56:35;;;;;;;33.35;18.65;;;;;;;5.80;100.00;99397.31;5050408;28;20398;-75
2024/04/01 02:59:04;;;;;;;39.83;21.17;;;;;;;5.80;100.00;99399.13;5049470;28;20034;-75
2024/04/01 03:01:30;;;;;;;39.85;20.60;;;;;;;5.79;100.00;99400.09;5048953;28;20051;-75
2024/04/01 03:04:00;;;;;;;41.30;19.55;;;;;;;5.75;100.00;99390.84;5050490;28;20116;-75
2024/04/01 03:06:27;;;;;;;26.42;16.63;;;;;;;5.71;100.00;99398.19;5050236;28;20072;-75
2024/04/01 03:08:53;;;;;;;28.63;16.45;;;;;;;5.66;100.00;99400.44;5050343;28;20076;-75
2024/04/01 03:11:18;;;;;;;37.53;17.02;;;;;;;5.65;100.00;99399.56;5048884;28;20069;-76
2024/04/01 03:13:43;;;;;;;32.05;17.23;;;;;;;5.65;100.00;99398.75;5050863;28;20112;-75
2024/04/01 03:16:10;;;;;;;26.05;17.13;;;;;;;5.66;100.00;99392.50;5050242;28;20037;-75
2024/04/01 03:18:35;;;;;;;23.80;15.70;;;;;;;5.68;100.00;99401.09;5050092;28;20041;-75
2024/04/01 03:21:01;;;;;;;32.15;16.98;;;;;;;5.75;100.00;99401.38;5050098;28;20461;-75
2024/04/01 03:23:26;;;;;;;31.58;18.42;;;;;;;5.82;100.00;99397.16;5050079;28;20044;-75
2024/04/01 03:25:52;;;;;;;30.45;18.30;;;;;;;5.85;100.00;99396.88;5050509;28;20438;-74
2024/04/01 03:28:20;;;;;;;29.42;18.25;;;;;;;5.86;100.00;99397.75;5050331;28;20036;-75
2024/04/01 03:30:46;;;;;;;36.25;19.23;;;;;;;5.81;100.00;99399.00;5050284;28;20112;-75
2024/04/01 03:33:12;;;;;;;30.23;18.63;;;;;;;5.79;100.00;99394.81;5050317;28;20057;-75
2024/04/01 03:35:41;;;;;;;25.83;16.67;;;;;;;5.80;100.00;99399.13;5049894;28;20068;-75
2024/04/01 03:38:08;;;;;;;39.10;20.38;;;;;;;5.82;100.00;99394.53;5050308;28;20480;-75
2024/04/01 03:40:40;;;;;;;33.22;20.33;;;;;;;5.81;100.00;99390.25;5049864;28;20040;-75
2024/04/01 03:43:06;;;;;;;35.05;18.38;;;;;;;5.79;100.00;99390.41;5050251;28;20033;-75
2024/04/01 03:45:33;;;;;;;30.13;17.95;;;;;;;5.76;100.00;99395.13;5049663;28;20075;-75
2024/04/01 03:47:58;;;;;;;28.08;18.13;;;;;;;5.73;100.00;99384.84;5048640;28;20033;-75
2024/04/01 03:50:23;;;;;;;32.65;19.95;;;;;;;5.74;100.00;99389.16;5049422;28;20059;-76
2024/04/01 03:52:49;;;;;;;31.83;18.38;;;;;;;5.75;100.00;99391.66;5050058;28;20029;-75
2024/04/01 03:55:14;;;;;;;30.13;16.27;;;;;;;5.79;100.00;99384.25;5050011;28;20029;-75
2024/04/01 03:57:39;;;;;;;34.22;19.33;;;;;;;5.88;100.00;99378.16;5049681;28;20472;-75
2024/04/01 04:00:06;;;;;;;33.80;19.17;;;;;;;5.97;100.00;99381.72;5053921;28;20112;-75
2024/04/01 04:02:32;;;;;;;35.72;19.10;;;;;;;6.00;100.00;99384.06;5053642;28;20117;-75
2024/04/01 04:04:57;;;;;;;31.55;18.05;;;;;;;6.02;100.00;99383.94;5053830;28;20057;-75
2024/04/01 04:07:22;;;;;;;34.60;19.17;;;;;;;6.03;100.00;99380.31;5053709;28;20203;-75
2024/04/01 04:09:49;;;;;;;33.65;18.45;;;;;;;6.04;100.00;99377.53;5051828;28;20167;-74
2024/04/01 04:12:15;;;;;;;33.00;18.05;;;;;;;6.03;100.00;99383.81;5053412;28;20435;-74
2024/04/01 04:14:40;;;;;;;35.88;18.67;;;;;;;5.98;100.00;99380.75;5051917;28;20047;-75
2024/04/01 04:17:07;;;;;;;28.90;16.45;;;;;;;5.92;100.00;99378.69;5053661;28;20112;-75
2024/04/01 04:19:32;;;;;;;31.17;15.65;;;;;;;5.90;100.00;99376.19;5053290;28;20130;-75
2024/04/01 04:21:57;;;;;;;28.95;15.02;;;;;;;5.91;100.00;99379.66;5053550;28;20044;-75
2024/04/01 04:24:25;;;;;;;30.38;16.23;;;;;;;5.95;100.00;99381.03;5053624;28;20488;-75
2024/04/01 04:26:50;;;;;;;30.98;16.58;;;;;;;5.96;100.00;99374.78;5053034;28;20053;-75
2024/04/01 04:29:16;;;;;;;36.97;17.98;;;;;;;5.95;100.00;99381.03;5053291;28;20059;-75
2024/04/01 04:31:51;;;;;;;37.50;18.95;;;;;;;5.94;100.00;99384.63;5052766;28;20033;-75
2024/04/01 04:34:16;;;;;;;31.73;16.05;;;;;;;5.92;100.00;99383.97;5053423;28;20047;-74
2024/04/01 04:36:42;;;;;;;30.75;16.77;;;;;;;5.91;100.00;99379.66;5052937;28;20345;-75
2024/04/01 04:39:19;;;;;;;30.88;16.80;;;;;;;5.89;100.00;99386.88;5053184;28;20412;-75
2024/04/01 04:41:46;;;;;;;25.50;14.77;;;;;;;5.88;100.00;99391.34;5051230;28;20445;-75
2024/04/01 04:44:12;;;;;;;38.83;18.13;;;;;;;5.89;100.00;99386.88;5053097;28;20126;-75
2024/04/01 04:46:37;;;;;;;35.95;16.88;;;;;;;5.87;100.00;99394.09;5051225;28;20080;-75
2024/04/01 04:49:02;;;;;;;33.88;16.23;;;;;;;5.83;100.00;99398.84;5051279;28;20063;-75
2024/04/01 04:51:28;;;;;;;32.83;17.48;;;;;;;5.82;100.00;99395.38;5052590;28;20044;-75
2024/04/01 04:53:53;;;;;;;32.53;16.48;;;;;;;5.80;100.00;99414.97;5052467;28;20030;-75
2024/04/01 04:56:19;;;;;;;30.10;15.63;;;;;;;5.76;100.00;99416.22;5052482;28;20118;-74
2024/04/01 04:58:44;;;;;;;34.85;17.20;;;;;;;5.76;100.00;99417.06;5051002;28;20032;-74
2024/04/01 05:01:10;;;;;;;40.20;18.67;;;;;;;5.80;100.00;99423.72;5052752;28;20083;-75
2024/04/01 05:03:35;;;;;;;39.45;19.25;;;;;;;5.85;100.00;99422.47;5050994;28;20025;-74
2024/04/01 05:06:01;;;;;;;38.90;20.45;;;;;;;5.95;100.00;99418.00;5052688;28;20077;-74
2024/04/01 05:08:27;;;;;;;40.80;20.85;;;;;;;5.97;100.00;99426.63;5050892;28;20067;-74
2024/04/01 05:10:52;;;;;;;47.65;22.27;;;;;;;6.00;100.00;99427.19;5050865;28;20177;-74
2024/04/01 05:13:17;;;;;;;41.88;19.80;;;;;;;6.00;100.00;99435.09;5052467;28;20029;-74
2024/04/01 05:15:43;;;;;;;35.38;18.67;;;;;;;5.96;100.00;99428.41;5052020;28;20090;-74
2024/04/01 05:18:09;;;;;;;41.58;20.40;;;;;;;6.01;100.00;99433.28;5052370;28;20032;-75
2024/04/01 05:20:36;;;;;;;35.78;19.25;;;;;;;6.01;100.00;99438.56;5052401;28;20033;-74
2024/04/01 05:23:02;;;;;;;45.55;20.67;;;;;;;6.00;100.00;99443.03;5052275;28;20032;-74
2024/04/01 05:25:28;;;;;;;49.40;22.55;;;;;;;6.02;100.00;99439.38;5052239;28;20120;-74
2024/04/01 05:27:53;;;;;;;44.90;21.27;;;;;;;6.07;100.00;99450.34;5051527;28;20179;-74
2024/04/01 05:30:23;;;;;;;45.08;21.48;;;;;;;6.06;100.00;99446.91;5050574;28;20466;-74
2024/04/01 05:32:49;;;;;;;38.55;19.02;;;;;;;6.04;100.00;99454.13;5049842;28;20109;-74
2024/04/01 05:35:16;;;;;;;48.80;21.48;;;;;;;6.00;100.00;99458.00;5052137;28;20093;-74
2024/04/01 05:37:42;;;;;;;42.50;20.55;;;;;;;6.00;100.00;99461.50;5051490;28;20036;-75
2024/04/01 05:40:08;;;;;;;50.65;22.20;;;;;;;6.00;100.00;99469.44;5050338;28;20457;-74
2024/04/01 05:42:33;;;;;;;43.97;21.13;;;;;;;6.00;100.00;99474.69;5051998;28;20515;-75
2024/04/01 05:44:59;;;;;;;47.30;22.65;;;;;;;6.03;100.00;99468.31;5051218;28;20086;-75
2024/04/01 05:47:24;;;;;;;45.08;21.45;;;;;;;6.05;100.00;99470.81;5050551;28;20065;-75
2024/04/01 05:49:49;;;;;;;43.33;20.52;;;;;;;6.07;100.00;99468.84;5051201;28;20055;-75
2024/04/01 05:52:15;;;;;;;41.95;20.17;;;;;;;6.08;100.00;99476.63;5051397;28;20021;-75
2024/04/01 05:54:40;;;;;;;44.05;21.45;;;;;;;6.10;100.00;99474.66;5050324;28;20123;-76
2024/04/01 05:57:05;;;;;;;39.05;19.75;;;;;;;6.12;100.00;99471.88;5051553;28;20102;-75
2024/04/01 05:59:31;;;;;;;46.00;22.08;;;;;;;6.14;100.00;99475.22;5051437;28;20457;-75
2024/04/01 06:01:56;;;;;;;45.55;22.13;;;;;;;6.15;100.00;99476.88;5051134;28;20338;-75
2024/04/01 06:04:23;;;;;;;53.60;24.10;;;;;;;6.22;100.00;99485.06;5051349;28;20393;-75
2024/04/01 06:06:49;;;;;;;42.17;21.88;;;;;;;6.23;100.00;99482.28;5049525;28;20052;-75
2024/04/01 06:09:15;;;;;;;43.97;23.00;;;;;;;6.27;100.00;99478.38;5051460;28;20154;-75
2024/04/01 06:11:41;;;;;;;42.25;23.23;;;;;;;6.32;100.00;99485.88;5051069;28;20060;-75
2024/04/01 06:14:07;;;;;;;45.97;22.30;;;;;;;6.36;100.00;99489.91;5051126;28;20036;-75
2024/04/01 06:16:33;;;;;;;49.97;22.38;;;;;;;6.39;100.00;99481.66;5051089;28;20122;-75
2024/04/01 06:18:59;;;;;;;49.28;23.33;;;;;;;6.43;100.00;99485.66;5050741;28;20041;-76
2024/04/01 06:21:24;;;;;;;50.50;22.88;;;;;;;6.46;100.00;99488.00;5049701;28;20036;-75
2024/04/01 06:23:49;;;;;;;46.22;23.27;;;;;;;6.50;100.00;99488.56;5049064;28;20124;-75
2024/04/01 06:26:15;;;;;;;49.38;23.33;;;;;;;6.50;100.00;99475.38;5050941;28;20041;-75
2024/04/01 06:28:40;;;;;;;34.47;20.88;;;;;;;6.55;100.00;99482.84;5050996;28;20349;-75
2024/04/01 06:31:06;;;;;;;48.10;22.90;;;;;;;6.56;100.00;99484.53;5050380;28;20025;-75
2024/04/01 06:33:33;;;;;;;45.95;22.25;;;;;;;6.57;100.00;99480.88;5051112;28;20025;-75
2024/04/01 06:36:02;;;;;;;41.35;21.85;;;;;;;6.58;100.00;99491.31;5050419;28;20499;-75
2024/04/01 06:38:29;;;;;;;41.85;21.23;;;;;;;6.58;100.00;99493.13;5050769;28;20045;-75
2024/04/01 06:40:55;;;;;;;37.40;19.73;;;;;;;6.61;100.00;99495.47;5050515;28;20366;-75
2024/04/01 06:43:20;;;;;;;41.40;21.23;;;;;;;6.65;100.00;99504.78;5050444;28;20033;-75
2024/04/01 06:45:56;;;;;;;43.45;22.33;;;;;;;6.69;100.00;99508.81;5050617;28;20029;-75
2024/04/01 06:48:22;;;;;;;40.45;20.73;;;;;;;6.76;100.00;99501.09;5050593;28;20112;-75
2024/04/01 06:50:48;;;;;;;41.92;20.50;;;;;;;6.81;100.00;99515.56;5049001;28;20509;-76
2024/04/01 06:53:13;;;;;;;40.42;20.60;;;;;;;6.88;100.00;99521.06;5050784;28;20072;-75
2024/04/01 06:55:39;;;;;;;40.40;20.58;;;;;;;6.95;100.00;99522.16;5050463;28;20025;-75
2024/04/01 06:58:06;;;;;;;45.08;20.73;;;;;;;6.99;100.00;99522.72;5050344;28;20402;-75
2024/04/01 07:00:32;;;;;;;39.00;19.58;;;;;;;7.07;100.00;99522.78;5049412;28;20029;-75
2024/04/01 07:02:57;;;;;;;41.75;21.90;;;;;;;7.11;100.00;99542.66;5049815;28;20033;-75
2024/04/01 07:05:23;;;;;;;39.88;20.90;;;;;;;7.17;100.00;99538.59;5050563;28;20032;-75
2024/04/01 07:07:48;;;;;;;41.35;20.23;;;;;;;7.22;100.00;99545.09;5050402;28;20137;-75
2024/04/01 07:10:14;;;;;;;37.05;20.40;;;;;;;7.26;100.00;99543.00;5048612;28;20091;-75
2024/04/01 07:12:40;;;;;;;36.25;19.00;;;;;;;7.34;100.00;99552.84;5050589;28;20037;-75
2024/04/01 07:15:08;;;;;;;32.15;18.80;;;;;;;7.37;100.00;99539.28;5049862;28;20361;-74
2024/04/01 07:17:34;;;;;;;37.05;19.98;;;;;;;7.42;100.00;99539.69;5050520;28;20056;-74
2024/04/01 07:20:00;;;;;;;33.38;18.33;;;;;;;7.45;100.00;99549.97;5050358;28;20120;-75
2024/04/01 07:22:25;;;;;;;32.50;17.77;;;;;;;7.49;100.00;99556.63;5050078;28;20089;-74
2024/04/01 07:24:50;;;;;;;29.50;17.25;;;;;;;7.54;100.00;99554.38;5050032;28;20035;-74
2024/04/01 07:27:16;;;;;;;24.15;15.38;;;;;;;7.60;100.00;99550.28;5049647;28;20033;-73
2024/04/01 07:29:41;;;;;;;24.65;13.88;;;;;;;7.63;100.00;99535.91;5048802;28;20032;-73
2024/04/01 07:32:06;;;;;;;24.60;14.75;;;;;;;7.66;100.00;99533.78;5048787;28;20029;-76
2024/04/01 07:34:32;;;;;;;24.67;14.73;;;;;;;7.70;100.00;99539.59;5064706;28;20186;-73
2024/04/01 07:36:57;;;;;;;25.25;14.05;;;;;;;7.75;100.00;99540.81;5067146;28;20033;-74
2024/04/01 07:39:27;;;;;;;24.00;13.60;;;;;;;7.79;100.00;99543.16;5067279;28;20037;-74
2024/04/01 07:41:53;;;;;;;18.40;12.88;;;;;;;7.86;100.00;99538.91;5067100;28;20037;-73
2024/04/01 07:44:19;;;;;;;16.45;11.07;;;;;;;7.80;100.00;99550.94;5066304;28;20032;-73
2024/04/01 07:46:44;;;;;;;15.00;11.35;;;;;;;7.91;100.00;99555.16;5065682;28;20037;-73
2024/04/01 07:49:12;;;;;;;18.50;12.70;;;;;;;8.02;100.00;99562.06;5066873;28;20036;-73
2024/04/01 07:51:37;;;;;;;16.33;11.90;;;;;;;8.16;100.00;99564.13;5066907;28;20037;-73
2024/04/01 07:54:02;;;;;;;15.88;11.07;;;;;;;8.24;100.00;99566.00;5066582;28;20522;-74
2024/04/01 07:56:28;;;;;;;16.08;10.98;;;;;;;8.28;100.00;99570.88;5067014;28;20041;-74
2024/04/01 07:58:54;;;;;;;15.93;10.85;;;;;;;8.31;100.00;99588.25;5067245;28;20040;-73
2024/04/01 08:01:19;;;;;;;19.20;11.05;;;;;;;8.39;100.00;99584.81;5066699;28;20150;-73
2024/04/01 08:03:45;;;;;;;14.65;10.68;;;;;;;8.47;100.00;99587.56;5066929;28;20037;-73
2024/04/01 08:06:11;;;;;;;13.27;10.65;;;;;;;8.60;100.00;99593.28;5066596;28;20037;-74
2024/04/01 08:08:37;;;;;;;13.43;10.63;;;;;;;8.72;100.00;99595.66;5066655;28;20073;-73
2024/04/01 08:11:02;;;;;;;15.55;9.48;;;;;;;8.76;100.00;99605.81;5066615;28;20044;-74
2024/04/01 08:13:28;;;;;;;15.02;8.98;;;;;;;8.80;100.00;99601.84;5066981;28;20037;-73
2024/04/01 08:16:01;;;;;;;11.73;8.82;;;;;;;8.87;100.00;99602.06;5066688;28;20129;-73
2024/04/01 08:18:27;;;;;;;11.85;7.90;;;;;;;8.92;100.00;99605.06;5063840;28;20033;-74
2024/04/01 08:20:52;;;;;;;12.23;7.65;;;;;;;9.03;100.00;99593.31;5059518;28;20186;-75
2024/04/01 08:23:17;;;;;;;13.50;7.80;;;;;;;9.04;100.00;99602.97;5066835;28;20119;-73
2024/04/01 08:25:43;;;;;;;11.73;6.90;;;;;;;8.96;100.00;99590.50;5067196;28;20083;-73
2024/04/01 08:28:08;;;;;;;12.32;6.35;;;;;;;8.96;100.00;99587.84;5068657;28;20114;-74
2024/04/01 08:30:33;;;;;;;8.20;5.97;;;;;;;8.90;100.00;99585.00;5068869;28;20036;-73
2024/04/01 08:32:59;;;;;;;8.82;6.10;;;;;;;8.91;100.00;99584.84;5068536;28;20425;-74
2024/04/01 08:35:25;;;;;;;7.00;6.07;;;;;;;8.92;100.00;99591.78;5068664;28;20392;-76
2024/04/01 08:37:50;;;;;;;9.25;5.85;;;;;;;8.94;100.00;99581.03;5068819;28;20032;-73
2024/04/01 08:40:15;;;;;;;8.95;6.32;;;;;;;8.95;100.00;99590.66;5068179;28;20499;-73
2024/04/01 08:42:44;;;;;;;9.48;6.03;;;;;;;8.95;100.00;99588.00;5069045;28;20060;-73
2024/04/01 08:45:13;;;;;;;9.23;5.70;;;;;;;9.03;100.00;99587.19;5069080;28;20074;-73
2024/04/01 08:47:42;;;;;;;7.68;5.75;;;;;;;9.10;100.00;99596.19;5072431;28;20064;-74
2024/04/01 08:50:19;;;;;;;7.32;6.07;;;;;;;9.11;100.00;99593.38;5071703;28;20024;-73
2024/04/01 08:53:01;;;;;;;16.27;6.50;;;;;;;9.16;100.00;99590.22;5072471;28;20034;-74
2024/04/01 08:55:28;;;;;;;10.43;6.30;;;;;;;9.27;100.00;99602.38;5070663;28;20086;-73
2024/04/01 08:57:54;;;;;;;7.65;5.70;;;;;;;9.27;100.00;99595.25;5072261;28;20037;-73
2024/04/01 09:00:20;;;;;;;9.25;5.20;;;;;;;9.26;100.00;99606.88;5071714;28;20037;-73
2024/04/01 09:02:46;;;;;;;9.55;5.78;;;;;;;9.32;100.00;99608.88;5072100;28;20097;-74
2024/04/01 09:05:11;;;;;;;8.27;5.65;;;;;;;9.39;100.00;99598.44;5070197;28;20056;-73
2024/04/01 09:07:37;;;;;;;9.05;5.90;;;;;;;9.50;100.00;99608.75;5071586;28;20489;-73
2024/04/01 09:10:02;;;;;;;12.30;6.82;;;;;;;9.67;100.00;99608.78;5072063;28;20101;-73
2024/04/01 09:12:27;;;;;;;10.70;5.70;;;;;;;9.78;100.00;99615.59;5070405;28;20044;-74
2024/04/01 09:14:53;;;;;;;9.25;5.43;;;;;;;9.76;100.00;99609.63;5072050;28;20119;-74
2024/04/01 09:17:26;;;;;;;10.05;5.38;;;;;;;9.80;100.00;99611.81;5070390;28;20035;-73
2024/04/01 09:19:51;;;;;;;11.90;4.72;;;;;;;9.83;100.00;99619.44;5071847;28;20029;-73
2024/04/01 09:22:17;;;;;;;8.15;4.70;;;;;;;9.97;100.00;99620.63;5071816;28;20479;-73
2024/04/01 09:24:44;;;;;;;8.52;4.05;;;;;;;10.05;100.00;99628.59;5071766;28;20139;-74
2024/04/01 09:27:09;;;;;;;7.32;3.42;;;;;;;10.07;100.00;99625.78;5071101;28;20469;-74
2024/04/01 09:29:34;;;;;;;9.07;3.55;;;;;;;10.12;100.00;99631.44;5070048;28;20063;-76
2024/04/01 09:32:00;;;;;;;10.85;3.60;;;;;;;10.14;100.00;99628.63;5071374;28;20056;-73
2024/04/01 09:34:29;;;;;;;7.60;3.42;;;;;;;10.10;100.00;99638.72;5070538;28;20044;-74
2024/04/01 09:36:54;;;;;;;12.60;3.08;;;;;;;9.99;100.00;99623.13;5070112;28;20033;-74
2024/04/01 09:39:20;;;;;;;10.10;2.70;;;;;;;9.87;100.00;99628.75;5071071;28;20028;-74
2024/04/01 09:41:47;;;;;;;7.35;2.65;;;;;;;9.86;100.00;99632.41;5071153;28;20393;-73
2024/04/01 09:44:13;;;;;;;15.38;3.42;;;;;;;9.78;100.00;99629.75;5071150;28;20032;-74
2024/04/01 09:46:38;;;;;;;9.02;2.83;;;;;;;9.84;100.00;99633.56;5069658;28;20048;-75
2024/04/01 09:49:05;;;;;;;10.05;2.47;;;;;;;9.86;100.00;99651.00;5071564;28;20101;-79
2024/04/01 09:51:32;;;;;;;6.95;2.17;;;;;;;9.93;100.00;99645.00;5070553;28;20025;-73
2024/04/01 09:53:57;;;;;;;9.05;2.38;;;;;;;9.92;100.00;99652.16;5071282;28;20021;-73
2024/04/01 09:56:41;;;;;;;6.57;2.22;;;;;;;10.01;100.00;99655.66;5070371;28;20465;-74
2024/04/01 09:59:27;;;;;;;8.20;2.20;;;;;;;9.97;100.00;99654.34;5071619;28;20115;-74
2024/04/01 10:02:07;;;;;;;8.55;2.00;;;;;;;10.10;100.00;99646.72;5069329;28;20028;-74
2024/04/01 10:04:58;;;;;;;11.52;2.28;;;;;;;10.24;100.00;99645.25;5070798;28;20036;-73
2024/04/01 10:07:35;;;;;;;12.17;2.10;;;;;;;10.37;100.00;99653.53;5070657;28;20028;-73
2024/04/01 10:10:40;;;;;;;10.18;2.10;;;;;;;10.41;100.00;99649.56;5073306;28;20313;-73
2024/04/01 10:13:34;;;;;;;9.43;1.90;;;;;;;10.52;100.00;99650.22;5080500;28;20082;-73
2024/04/01 10:16:12;;;;;;;7.18;1.60;;;;;;;10.54;100.00;99650.91;5073260;28;20421;-73
2024/04/01 10:19:09;;;;;;;7.60;2.20;;;;;;;10.68;100.00;99646.72;5077387;28;20021;-73
2024/04/01 10:21:53;;;;;;;13.90;2.10;;;;;;;10.79;100.00;99653.50;5061228;28;20028;-73
2024/04/01 10:24:44;;;;;;;11.88;1.90;;;;;;;10.74;100.00;99649.53;5085608;28;20024;-72
2024/04/01 10:27:12;;;;;;;9.48;2.17;;;;;;;10.63;100.00;99662.34;5072242;28;20529;-73
2024/04/01 10:29:59;;;;;;;9.13;2.15;;;;;;;10.51;100.00;99654.72;5084983;28;20028;-73
2024/04/01 10:32:58;;;;;;;8.30;1.85;;;;;;;10.42;100.00;99663.72;5081954;28;20024;-73
2024/04/01 10:35:45;;;;;;;8.18;1.52;;;;;;;10.36;100.00;99667.88;5081826;28;20021;-74
2024/04/01 10:38:32;;;;;;;8.60;1.40;;;;;;;10.52;100.00;99668.84;5085667;28;20031;-74
2024/04/01 10:41:16;;;;;;;8.77;1.40;;;;;;;10.54;100.00;99667.69;5090310;28;20429;-75
2024/04/01 10:44:00;;;;;;;6.30;1.33;;;;;;;10.48;100.00;99656.88;5090384;28;20107;-74
2024/04/01 10:46:52;;;;;;;8.85;1.55;;;;;;;10.59;100.00;99659.19;5088885;28;20039;-74
2024/04/01 10:49:32;;;;;;;4.90;1.30;;;;;;;10.57;100.00;99662.03;5086682;28;20469;-76
2024/04/01 10:52:31;;;;;;;8.90;2.30;;;;;;;10.50;100.00;99674.34;5080659;28;20035;-76
2024/04/01 10:55:02;;;;;;;7.10;1.67;;;;;;;10.56;100.00;99676.31;5084372;28;20498;-75
2024/04/01 10:57:51;;;;;;;11.18;1.45;;;;;;;10.64;100.00;99677.31;5090015;28;20032;-82
2024/04/01 11:00:41;;;;;;;9.70;1.70;;;;;;;10.60;100.00;99687.47;5090486;28;20043;-78
2024/04/01 11:03:42;;;;;;;10.00;1.30;;;;;;;10.65;100.00;99687.78;5090396;28;20221;-73
2024/04/01 11:06:33;;;;;;;5.97;1.42;;;;;;;10.70;100.00;99700.56;5090317;28;20039;-73
2024/04/01 11:09:11;;;;;;;8.48;1.77;;;;;;;10.77;100.00;99698.91;5089324;28;20048;-74
2024/04/01 11:11:39;;;;;;;7.03;1.45;;;;;;;10.76;100.00;99711.41;5089760;28;20044;-73
2024/04/01 11:14:05;;;;;;;9.30;1.35;;;;;;;10.85;100.00;99706.06;5089733;28;20028;-74
2024/04/01 11:16:33;;;;;;;3.75;1.30;;;;;;;10.89;100.00;99716.19;5089264;28;20036;-74
2024/04/01 11:19:16;;;;;;;9.43;1.88;;;;;;;10.89;100.00;99710.88;5089687;28;20133;-74
2024/04/01 11:21:51;;;;;;;6.13;1.35;;;;;;;11.00;100.00;99714.19;5089586;28;20032;-74
2024/04/01 11:24:41;;;;;;;6.78;1.40;;;;;;;11.07;100.00;99725.81;5090171;28;20070;-74